createdAt,value
2018-09-26T00:00:07.680Z,74.67
2018-09-26T00:00:33.841Z,74.96
2018-09-26T00:00:59.973Z,75.15
2018-09-26T00:01:26.106Z,74.86
2018-09-26T00:01:52.245Z,74.73
2018-09-26T00:02:18.371Z,74.77
2018-09-26T00:02:44.500Z,75.68
2018-09-26T00:03:10.632Z,75.3
2018-09-26T00:03:36.769Z,75.78
2018-09-26T00:04:02.918Z,75.78
2018-09-26T00:04:29.045Z,76.06
2018-09-26T00:04:55.201Z,75.96
2018-09-26T00:05:21.338Z,76.06
2018-09-26T00:05:47.464Z,76.06
2018-09-26T00:06:13.601Z,75.78
2018-09-26T00:06:39.757Z,76.25
2018-09-26T00:07:05.881Z,76.16
2018-09-26T00:07:32.014Z,76.25
2018-09-26T00:07:58.145Z,76.06
2018-09-26T00:08:24.277Z,75.87
2018-09-26T00:08:50.404Z,76.16
2018-09-26T00:09:16.549Z,76.54
2018-09-26T00:09:42.691Z,76.35
2018-09-26T00:10:08.863Z,75.87
2018-09-26T00:10:34.984Z,75.78
2018-09-26T00:11:01.121Z,75.78
2018-09-26T00:11:27.255Z,76.35
2018-09-26T00:11:53.382Z,75.87
2018-09-26T00:12:19.513Z,76.16
2018-09-26T00:12:45.640Z,76.73
2018-09-26T00:13:11.768Z,76.64
2018-09-26T00:13:37.898Z,77.01
2018-09-26T00:14:04.037Z,77.11
2018-09-26T00:14:30.196Z,77.2
2018-09-26T00:14:56.330Z,77.3
2018-09-26T00:15:22.487Z,77.11
2018-09-26T00:15:48.619Z,77.01
2018-09-26T00:16:14.800Z,77.59
2018-09-26T00:16:40.929Z,77.59
2018-09-26T00:17:07.066Z,77.49
2018-09-26T00:17:33.200Z,77.59
2018-09-26T00:17:59.329Z,77.4
2018-09-26T00:18:25.467Z,77.4
2018-09-26T00:18:51.598Z,77.3
2018-09-26T00:19:17.733Z,77.78
2018-09-26T00:19:43.866Z,77.4
2018-09-26T00:20:10.023Z,77.69
2018-09-26T00:20:36.154Z,77.4
2018-09-26T00:21:02.283Z,77.2
2018-09-26T00:21:28.412Z,77.49
2018-09-26T00:21:54.547Z,77.4
2018-09-26T00:22:20.677Z,77.2
2018-09-26T00:22:46.805Z,77.4
2018-09-26T00:23:12.937Z,77.59
2018-09-26T00:23:39.089Z,77.26
2018-09-26T00:24:05.236Z,77.55
2018-09-26T00:24:31.422Z,77.78
2018-09-26T00:24:57.548Z,77.83
2018-09-26T00:25:23.682Z,77.87
2018-09-26T00:25:49.864Z,77.69
2018-09-26T00:26:16.000Z,77.78
2018-09-26T00:26:42.128Z,77.74
2018-09-26T00:27:08.252Z,78.12
2018-09-26T00:27:34.384Z,78.22
2018-09-26T00:28:00.515Z,78.41
2018-09-26T00:28:26.655Z,78.69
2018-09-26T00:28:52.774Z,79.46
2018-09-26T00:29:18.911Z,79.36
2018-09-26T00:29:45.041Z,78.78
2018-09-26T00:30:11.203Z,78.98
2018-09-26T00:30:37.332Z,78.88
2018-09-26T00:31:03.486Z,78.88
2018-09-26T00:31:29.610Z,78.69
2018-09-26T00:31:55.775Z,79.07
2018-09-26T00:32:21.904Z,78.88
2018-09-26T00:32:48.069Z,78.59
2018-09-26T00:33:14.218Z,78.88
2018-09-26T00:33:40.380Z,78.5
2018-09-26T00:34:06.528Z,78.69
2018-09-26T00:34:32.687Z,78.22
2018-09-26T00:34:58.820Z,78.31
2018-09-26T00:35:24.998Z,78.41
2018-09-26T00:35:51.191Z,78.78
2018-09-26T00:36:17.328Z,78.31
2018-09-26T00:36:43.467Z,78.31
2018-09-26T00:37:09.642Z,78.31
2018-09-26T00:37:35.822Z,78.31
2018-09-26T00:38:01.986Z,78.31
2018-09-26T00:38:28.135Z,78.59
2018-09-26T00:38:54.292Z,78.41
2018-09-26T00:39:20.442Z,78.69
2018-09-26T00:39:46.584Z,78.88
2018-09-26T00:40:12.738Z,78.78
2018-09-26T00:40:38.869Z,78.31
2018-09-26T00:41:05.001Z,78.31
2018-09-26T00:41:31.174Z,78.41
2018-09-26T00:41:57.337Z,78.22
2018-09-26T00:42:23.488Z,78.03
2018-09-26T00:42:49.616Z,78.41
2018-09-26T00:43:15.769Z,78.03
2018-09-26T00:43:41.907Z,78.03
2018-09-26T00:44:08.031Z,78.22
2018-09-26T00:44:34.172Z,78.12
2018-09-26T00:45:00.303Z,78.03
2018-09-26T00:45:26.427Z,78.41
2018-09-26T00:45:52.559Z,77.64
2018-09-26T00:46:18.696Z,77.74
2018-09-26T00:46:44.828Z,77.83
2018-09-26T00:47:10.967Z,77.87
2018-09-26T00:47:37.115Z,77.69
2018-09-26T00:48:03.240Z,77.78
2018-09-26T00:48:29.379Z,77.97
2018-09-26T00:48:55.514Z,77.69
2018-09-26T00:49:21.640Z,77.83
2018-09-26T00:49:47.770Z,77.64
2018-09-26T00:50:13.922Z,77.4
2018-09-26T00:50:40.103Z,77.59
2018-09-26T00:51:06.232Z,77.49
2018-09-26T00:51:32.378Z,78.03
2018-09-26T00:51:58.539Z,77.93
2018-09-26T00:52:24.696Z,77.74
2018-09-26T00:52:50.827Z,77.2
2018-09-26T00:53:16.986Z,77.3
2018-09-26T00:53:43.116Z,77.3
2018-09-26T00:54:09.249Z,77.93
2018-09-26T00:54:35.406Z,77.83
2018-09-26T00:55:01.540Z,77.93
2018-09-26T00:55:27.704Z,77.64
2018-09-26T00:55:53.840Z,77.93
2018-09-26T00:56:19.993Z,77.74
2018-09-26T00:56:46.125Z,77.93
2018-09-26T00:57:12.258Z,77.49
2018-09-26T00:57:38.405Z,77.26
2018-09-26T00:58:04.556Z,78.03
2018-09-26T00:58:30.697Z,77.55
2018-09-26T00:58:56.823Z,78.41
2018-09-26T00:59:22.960Z,78.12
2018-09-26T00:59:49.091Z,78.22
2018-09-26T01:00:15.241Z,78.22
2018-09-26T01:00:41.380Z,78.03
2018-09-26T01:01:07.537Z,77.93
2018-09-26T01:01:33.670Z,77.45
2018-09-26T01:01:59.795Z,77.64
2018-09-26T01:02:25.929Z,78.03
2018-09-26T01:02:52.067Z,77.36
2018-09-26T01:03:18.246Z,77.4
2018-09-26T01:03:44.373Z,77.4
2018-09-26T01:04:10.509Z,77.4
2018-09-26T01:04:36.631Z,77.49
2018-09-26T01:05:02.769Z,77.26
2018-09-26T01:05:28.921Z,77.4
2018-09-26T01:05:55.056Z,77.36
2018-09-26T01:06:21.184Z,77.36
2018-09-26T01:06:47.319Z,77.17
2018-09-26T01:07:13.457Z,77.01
2018-09-26T01:07:39.589Z,76.92
2018-09-26T01:08:05.747Z,77.3
2018-09-26T01:08:31.879Z,77.01
2018-09-26T01:08:58.013Z,76.25
2018-09-26T01:09:24.141Z,76.64
2018-09-26T01:09:50.270Z,76.73
2018-09-26T01:10:16.403Z,76.54
2018-09-26T01:10:42.534Z,76.35
2018-09-26T01:11:08.666Z,76.54
2018-09-26T01:11:34.826Z,76.16
2018-09-26T01:12:00.956Z,76.64
2018-09-26T01:12:27.115Z,76.64
2018-09-26T01:12:53.239Z,76.44
2018-09-26T01:13:19.376Z,76.44
2018-09-26T01:13:45.530Z,76.54
2018-09-26T01:14:11.665Z,76.44
2018-09-26T01:14:37.796Z,76.54
2018-09-26T01:15:03.936Z,76.35
2018-09-26T01:15:30.088Z,76.44
2018-09-26T01:15:56.213Z,76.82
2018-09-26T01:16:22.351Z,77.11
2018-09-26T01:16:48.499Z,77.11
2018-09-26T01:17:14.637Z,76.82
2018-09-26T01:17:40.765Z,77.01
2018-09-26T01:18:06.903Z,77.01
2018-09-26T01:18:33.034Z,76.73
2018-09-26T01:18:59.171Z,76.35
2018-09-26T01:19:25.305Z,76.64
2018-09-26T01:19:51.433Z,76.44
2018-09-26T01:20:17.595Z,76.44
2018-09-26T01:20:43.728Z,76.44
2018-09-26T01:21:09.897Z,75.93
2018-09-26T01:21:36.017Z,76.12
2018-09-26T01:22:02.147Z,76.21
2018-09-26T01:22:28.280Z,76.59
2018-09-26T01:22:54.423Z,76.4
2018-09-26T01:23:20.597Z,76.21
2018-09-26T01:23:46.729Z,76.03
2018-09-26T01:24:12.889Z,76.03
2018-09-26T01:24:39.010Z,76.03
2018-09-26T01:25:05.139Z,75.84
2018-09-26T01:25:31.275Z,76.21
2018-09-26T01:25:57.427Z,75.64
2018-09-26T01:26:23.573Z,76.21
2018-09-26T01:26:49.693Z,76.21
2018-09-26T01:27:15.876Z,76.21
2018-09-26T01:27:42.003Z,75.64
2018-09-26T01:28:08.155Z,75.74
2018-09-26T01:28:34.291Z,75.84
2018-09-26T01:29:00.427Z,75.93
2018-09-26T01:29:26.589Z,76.12
2018-09-26T01:29:52.726Z,75.74
2018-09-26T01:30:18.858Z,75.84
2018-09-26T01:30:44.987Z,75.64
2018-09-26T01:31:11.117Z,75.45
2018-09-26T01:31:37.254Z,75.26
2018-09-26T01:32:03.383Z,75.74
2018-09-26T01:32:29.509Z,75.84
2018-09-26T01:32:55.637Z,75.64
2018-09-26T01:33:21.766Z,75.93
2018-09-26T01:33:47.901Z,75.55
2018-09-26T01:34:14.031Z,75.36
2018-09-26T01:34:40.167Z,75.55
2018-09-26T01:35:06.295Z,76.03
2018-09-26T01:35:32.478Z,75.93
2018-09-26T01:35:58.607Z,75.45
2018-09-26T01:36:24.737Z,75.84
2018-09-26T01:36:50.870Z,75.93
2018-09-26T01:37:16.999Z,76.12
2018-09-26T01:37:43.129Z,75.55
2018-09-26T01:38:09.261Z,75.93
2018-09-26T01:38:35.393Z,76.21
2018-09-26T01:39:01.526Z,76.12
2018-09-26T01:39:27.670Z,76.03
2018-09-26T01:39:53.814Z,75.93
2018-09-26T01:40:19.935Z,76.03
2018-09-26T01:40:46.066Z,76.12
2018-09-26T01:41:12.219Z,76.03
2018-09-26T01:41:38.357Z,75.74
2018-09-26T01:42:04.501Z,75.93
2018-09-26T01:42:30.632Z,76.21
2018-09-26T01:42:56.788Z,76.03
2018-09-26T01:43:22.923Z,75.74
2018-09-26T01:43:49.052Z,75.64
2018-09-26T01:44:15.180Z,75.55
2018-09-26T01:44:41.307Z,75.64
2018-09-26T01:45:07.444Z,75.74
2018-09-26T01:45:33.572Z,75.55
2018-09-26T01:45:59.728Z,75.55
2018-09-26T01:46:25.884Z,75.45
2018-09-26T01:46:52.022Z,75.36
2018-09-26T01:47:18.152Z,75.84
2018-09-26T01:47:44.286Z,75.74
2018-09-26T01:48:10.413Z,75.64
2018-09-26T01:48:36.570Z,75.64
2018-09-26T01:49:02.697Z,76.03
2018-09-26T01:49:28.838Z,75.55
2018-09-26T01:49:54.971Z,75.93
2018-09-26T01:50:21.102Z,75.64
2018-09-26T01:50:47.254Z,75.93
2018-09-26T01:51:13.382Z,75.93
2018-09-26T01:51:39.516Z,75.36
2018-09-26T01:52:05.640Z,76.03
2018-09-26T01:52:31.774Z,76.03
2018-09-26T01:52:57.904Z,75.55
2018-09-26T01:53:24.035Z,75.84
2018-09-26T01:53:50.216Z,74.98
2018-09-26T01:54:16.305Z,75.07
2018-09-26T01:54:42.433Z,75.16
2018-09-26T01:55:08.572Z,74.69
2018-09-26T01:55:34.698Z,75.16
2018-09-26T01:56:00.833Z,75.26
2018-09-26T01:56:26.963Z,74.69
2018-09-26T01:56:53.092Z,74.79
2018-09-26T01:57:19.224Z,74.5
2018-09-26T01:57:45.363Z,74.69
2018-09-26T01:58:11.488Z,74.6
2018-09-26T01:58:37.654Z,74.6
2018-09-26T01:59:03.804Z,74.98
2018-09-26T01:59:29.959Z,74.98
2018-09-26T01:59:56.094Z,74.69
2018-09-26T02:00:22.244Z,74.69
2018-09-26T02:00:48.402Z,74.5
2018-09-26T02:01:14.535Z,75.16
2018-09-26T02:01:40.669Z,74.69
2018-09-26T02:02:06.802Z,74.5
2018-09-26T02:02:32.934Z,74.5
2018-09-26T02:02:59.065Z,75.26
2018-09-26T02:03:25.194Z,75.36
2018-09-26T02:03:51.325Z,75.26
2018-09-26T02:04:17.483Z,75.16
2018-09-26T02:04:43.645Z,75.16
2018-09-26T02:05:09.789Z,75.16
2018-09-26T02:05:35.919Z,74.69
2018-09-26T02:06:02.076Z,74.6
2018-09-26T02:06:28.204Z,74.69
2018-09-26T02:06:54.334Z,74.88
2018-09-26T02:07:20.465Z,75.07
2018-09-26T02:07:46.621Z,74.98
2018-09-26T02:08:12.751Z,74.88
2018-09-26T02:08:38.883Z,75.26
2018-09-26T02:09:05.037Z,75.16
2018-09-26T02:09:31.163Z,74.88
2018-09-26T02:09:57.298Z,75.16
2018-09-26T02:10:23.456Z,74.79
2018-09-26T02:10:49.583Z,75.07
2018-09-26T02:11:15.737Z,74.4
2018-09-26T02:11:41.868Z,74.54
2018-09-26T02:12:08.001Z,74.4
2018-09-26T02:12:34.127Z,74.44
2018-09-26T02:13:00.279Z,74.79
2018-09-26T02:13:26.408Z,74.82
2018-09-26T02:13:52.563Z,74.16
2018-09-26T02:14:18.699Z,74.21
2018-09-26T02:14:44.907Z,74.21
2018-09-26T02:15:11.082Z,74.12
2018-09-26T02:15:37.213Z,74.25
2018-09-26T02:16:03.350Z,74.16
2018-09-26T02:16:29.474Z,74.79
2018-09-26T02:16:55.611Z,74.06
2018-09-26T02:17:21.737Z,74.16
2018-09-26T02:17:47.872Z,74.44
2018-09-26T02:18:14.024Z,74.54
2018-09-26T02:18:40.166Z,74.06
2018-09-26T02:19:06.301Z,73.68
2018-09-26T02:19:32.430Z,74.06
2018-09-26T02:19:58.583Z,74.16
2018-09-26T02:20:24.730Z,74.25
2018-09-26T02:20:50.888Z,73.96
2018-09-26T02:21:17.018Z,74.35
2018-09-26T02:21:43.153Z,74.35
2018-09-26T02:22:09.286Z,74.35
2018-09-26T02:22:35.485Z,73.96
2018-09-26T02:23:01.616Z,73.68
2018-09-26T02:23:27.771Z,73.49
2018-09-26T02:23:53.899Z,73.39
2018-09-26T02:24:20.063Z,73.39
2018-09-26T02:24:46.216Z,73.58
2018-09-26T02:25:12.348Z,73.58
2018-09-26T02:25:38.477Z,73.3
2018-09-26T02:26:04.611Z,73.49
2018-09-26T02:26:30.778Z,73.58
2018-09-26T02:26:56.880Z,74.35
2018-09-26T02:27:23.008Z,74.16
2018-09-26T02:27:49.141Z,73.96
2018-09-26T02:28:15.301Z,73.87
2018-09-26T02:28:41.454Z,74.16
2018-09-26T02:29:07.583Z,74.06
2018-09-26T02:29:33.715Z,74.44
2018-09-26T02:29:59.853Z,74.25
2018-09-26T02:30:25.983Z,74.06
2018-09-26T02:30:52.113Z,73.74
2018-09-26T02:31:18.262Z,73.74
2018-09-26T02:31:44.416Z,74.12
2018-09-26T02:32:10.564Z,73.83
2018-09-26T02:32:36.697Z,73.83
2018-09-26T02:33:02.859Z,73.55
2018-09-26T02:33:29.036Z,73.65
2018-09-26T02:33:55.159Z,74.6
2018-09-26T02:34:21.311Z,74.4
2018-09-26T02:34:47.450Z,74.69
2018-09-26T02:35:13.595Z,74.69
2018-09-26T02:35:39.754Z,74.88
2018-09-26T02:36:05.901Z,74.5
2018-09-26T02:36:32.088Z,74.69
2018-09-26T02:36:58.214Z,74.6
2018-09-26T02:37:24.351Z,74.69
2018-09-26T02:37:50.501Z,74.79
2018-09-26T02:38:16.640Z,74.69
2018-09-26T02:38:42.839Z,74.6
2018-09-26T02:39:08.978Z,74.12
2018-09-26T02:39:35.140Z,74.12
2018-09-26T02:40:01.268Z,74.4
2018-09-26T02:40:27.392Z,74.4
2018-09-26T02:40:53.524Z,74.63
2018-09-26T02:41:19.663Z,74.12
2018-09-26T02:41:45.816Z,73.96
2018-09-26T02:42:11.972Z,73.36
2018-09-26T02:42:38.112Z,73.55
2018-09-26T02:43:04.238Z,73.65
2018-09-26T02:43:30.392Z,73.55
2018-09-26T02:43:56.567Z,73.36
2018-09-26T02:44:22.699Z,73.93
2018-09-26T02:44:48.852Z,73.93
2018-09-26T02:45:14.983Z,74.31
2018-09-26T02:45:41.114Z,74.6
2018-09-26T02:46:07.250Z,74.21
2018-09-26T02:46:33.396Z,74.12
2018-09-26T02:46:59.556Z,74.12
2018-09-26T02:47:25.740Z,74.31
2018-09-26T02:47:51.889Z,74.5
2018-09-26T02:48:18.071Z,74.21
2018-09-26T02:48:44.254Z,74.4
2018-09-26T02:49:10.403Z,74.5
2018-09-26T02:49:36.585Z,74.21
2018-09-26T02:50:02.745Z,74.69
2018-09-26T02:50:28.894Z,74.88
2018-09-26T02:50:55.030Z,74.6
2018-09-26T02:51:21.183Z,74.69
2018-09-26T02:51:47.309Z,74.21
2018-09-26T02:52:13.451Z,74.4
2018-09-26T02:52:39.602Z,74.5
2018-09-26T02:53:05.731Z,74.31
2018-09-26T02:53:31.888Z,74.5
2018-09-26T02:53:58.023Z,74.4
2018-09-26T02:54:24.146Z,74.21
2018-09-26T02:54:50.279Z,74.12
2018-09-26T02:55:16.436Z,74.12
2018-09-26T02:55:42.701Z,74.12
2018-09-26T02:56:08.739Z,74.31
2018-09-26T02:56:34.865Z,74.88
2018-09-26T02:57:01.023Z,74.69
2018-09-26T02:57:27.173Z,74.69
2018-09-26T02:57:53.322Z,74.12
2018-09-26T02:58:19.479Z,74.88
2018-09-26T02:58:45.636Z,74.98
2018-09-26T02:59:11.761Z,74.6
2018-09-26T02:59:37.894Z,74.69
2018-09-26T03:00:04.073Z,74.79
2018-09-26T03:00:30.248Z,74.69
2018-09-26T03:00:56.381Z,74.6
2018-09-26T03:01:22.514Z,74.69
2018-09-26T03:01:48.664Z,74.21
2018-09-26T03:02:14.825Z,74.31
2018-09-26T03:02:40.974Z,74.12
2018-09-26T03:03:07.108Z,74.12
2018-09-26T03:03:33.262Z,74.21
2018-09-26T03:03:59.394Z,74.37
2018-09-26T03:04:25.550Z,74.12
2018-09-26T03:04:51.705Z,74.12
2018-09-26T03:05:17.845Z,74.84
2018-09-26T03:05:43.987Z,74.69
2018-09-26T03:06:10.150Z,74.65
2018-09-26T03:06:36.282Z,74.84
2018-09-26T03:07:02.433Z,74.6
2018-09-26T03:07:28.608Z,74.08
2018-09-26T03:07:54.766Z,74.65
2018-09-26T03:08:20.901Z,74.37
2018-09-26T03:08:47.095Z,74.46
2018-09-26T03:09:13.249Z,74.84
2018-09-26T03:09:39.411Z,74.65
2018-09-26T03:10:05.543Z,74.84
2018-09-26T03:10:31.715Z,74.94
2018-09-26T03:10:57.955Z,74.56
2018-09-26T03:11:24.020Z,74.84
2018-09-26T03:11:50.153Z,74.56
2018-09-26T03:12:16.283Z,74.65
2018-09-26T03:12:42.438Z,74.37
2018-09-26T03:13:08.639Z,74.21
2018-09-26T03:13:34.782Z,74.46
2018-09-26T03:14:00.992Z,74.37
2018-09-26T03:14:27.120Z,74.18
2018-09-26T03:14:53.256Z,74.46
2018-09-26T03:15:19.426Z,74.56
2018-09-26T03:15:45.584Z,74.88
2018-09-26T03:16:11.731Z,74.37
2018-09-26T03:16:37.873Z,74.84
2018-09-26T03:17:04.035Z,74.84
2018-09-26T03:17:30.179Z,74.56
2018-09-26T03:17:56.329Z,74.6
2018-09-26T03:18:22.458Z,74.5
2018-09-26T03:18:48.585Z,74.12
2018-09-26T03:19:14.738Z,74.31
2018-09-26T03:19:40.895Z,74.4
2018-09-26T03:20:07.051Z,73.83
2018-09-26T03:20:33.227Z,73.74
2018-09-26T03:20:59.352Z,73.93
2018-09-26T03:21:25.486Z,73.83
2018-09-26T03:21:51.673Z,74.21
2018-09-26T03:22:17.871Z,74.27
2018-09-26T03:22:44.006Z,73.93
2018-09-26T03:23:10.155Z,73.99
2018-09-26T03:23:36.289Z,74.18
2018-09-26T03:24:02.430Z,73.8
2018-09-26T03:24:28.610Z,74.56
2018-09-26T03:24:54.737Z,74.08
2018-09-26T03:25:20.892Z,73.89
2018-09-26T03:25:47.026Z,74.18
2018-09-26T03:26:13.159Z,74.18
2018-09-26T03:26:39.316Z,74.08
2018-09-26T03:27:05.470Z,74.27
2018-09-26T03:27:31.624Z,74.27
2018-09-26T03:27:57.783Z,74.27
2018-09-26T03:28:23.913Z,74.18
2018-09-26T03:28:50.122Z,74.27
2018-09-26T03:29:16.275Z,74.56
2018-09-26T03:29:42.446Z,74.27
2018-09-26T03:30:08.602Z,74.46
2018-09-26T03:30:34.754Z,74.46
2018-09-26T03:31:00.906Z,74.37
2018-09-26T03:31:27.086Z,74.18
2018-09-26T03:31:53.257Z,74.56
2018-09-26T03:32:19.461Z,73.99
2018-09-26T03:32:45.593Z,74.08
2018-09-26T03:33:11.714Z,74.08
2018-09-26T03:33:37.922Z,74.08
2018-09-26T03:34:04.025Z,74.08
2018-09-26T03:34:30.153Z,74.08
2018-09-26T03:34:56.312Z,73.83
2018-09-26T03:35:22.473Z,73.83
2018-09-26T03:35:48.606Z,74.02
2018-09-26T03:36:14.726Z,73.93
2018-09-26T03:36:40.860Z,74.02
2018-09-26T03:37:06.993Z,74.02
2018-09-26T03:37:33.145Z,73.7
2018-09-26T03:37:59.324Z,73.45
2018-09-26T03:38:25.450Z,73.61
2018-09-26T03:38:51.576Z,73.45
2018-09-26T03:39:17.735Z,73.45
2018-09-26T03:39:43.882Z,73.45
2018-09-26T03:40:10.024Z,73.17
2018-09-26T03:40:36.156Z,73.55
2018-09-26T03:41:02.319Z,73.55
2018-09-26T03:41:28.466Z,73.55
2018-09-26T03:41:54.601Z,73.83
2018-09-26T03:42:20.735Z,73.74
2018-09-26T03:42:46.890Z,73.45
2018-09-26T03:43:13.043Z,73.65
2018-09-26T03:43:39.249Z,72.97
2018-09-26T03:44:05.414Z,72.97
2018-09-26T03:44:31.567Z,72.97
2018-09-26T03:44:57.701Z,73.07
2018-09-26T03:45:23.828Z,72.88
2018-09-26T03:45:49.992Z,72.97
2018-09-26T03:46:16.149Z,72.97
2018-09-26T03:46:42.311Z,72.97
2018-09-26T03:47:08.466Z,73.07
2018-09-26T03:47:34.613Z,72.88
2018-09-26T03:48:00.740Z,72.94
2018-09-26T03:48:26.879Z,73.45
2018-09-26T03:48:53.027Z,73.26
2018-09-26T03:49:19.160Z,73.36
2018-09-26T03:49:45.291Z,73.51
2018-09-26T03:50:11.444Z,73.65
2018-09-26T03:50:37.576Z,73.45
2018-09-26T03:51:03.732Z,73.55
2018-09-26T03:51:29.867Z,72.97
2018-09-26T03:51:56.039Z,72.97
2018-09-26T03:52:22.178Z,72.88
2018-09-26T03:52:48.314Z,72.78
2018-09-26T03:53:14.446Z,72.6
2018-09-26T03:53:40.579Z,72.88
2018-09-26T03:54:06.704Z,72.78
2018-09-26T03:54:32.904Z,72.69
2018-09-26T03:54:59.042Z,72.31
2018-09-26T03:55:25.168Z,72.41
2018-09-26T03:55:51.308Z,72.41
2018-09-26T03:56:17.443Z,72.12
2018-09-26T03:56:43.568Z,72.21
2018-09-26T03:57:09.690Z,72.6
2018-09-26T03:57:35.824Z,72.41
2018-09-26T03:58:01.978Z,72.02
2018-09-26T03:58:28.107Z,72.31
2018-09-26T03:58:54.265Z,72.21
2018-09-26T03:59:20.420Z,72.02
2018-09-26T03:59:46.553Z,72.12
2018-09-26T04:00:12.715Z,72.31
2018-09-26T04:00:38.844Z,72.21
2018-09-26T04:01:05.001Z,73.07
2018-09-26T04:01:31.138Z,72.88
2018-09-26T04:01:57.293Z,72.56
2018-09-26T04:02:23.419Z,73.03
2018-09-26T04:02:49.556Z,72.88
2018-09-26T04:03:15.725Z,73.03
2018-09-26T04:03:41.923Z,72.94
2018-09-26T04:04:08.075Z,72.97
2018-09-26T04:04:34.241Z,73.22
2018-09-26T04:05:00.412Z,72.94
2018-09-26T04:05:26.540Z,72.97
2018-09-26T04:05:52.663Z,72.75
2018-09-26T04:06:18.818Z,73.61
2018-09-26T04:06:44.965Z,73.8
2018-09-26T04:07:11.116Z,73.51
2018-09-26T04:07:37.250Z,73.51
2018-09-26T04:08:03.378Z,73.61
2018-09-26T04:08:29.503Z,73.41
2018-09-26T04:08:55.633Z,73.7
2018-09-26T04:09:21.794Z,73.41
2018-09-26T04:09:47.945Z,73.51
2018-09-26T04:10:14.128Z,73.61
2018-09-26T04:10:40.300Z,73.51
2018-09-26T04:11:06.429Z,73.51
2018-09-26T04:11:32.580Z,73.7
2018-09-26T04:11:58.716Z,73.41
2018-09-26T04:12:24.875Z,73.32
2018-09-26T04:12:51.068Z,73.22
2018-09-26T04:13:17.153Z,73.26
2018-09-26T04:13:43.304Z,73.45
2018-09-26T04:14:09.437Z,73.61
2018-09-26T04:14:35.567Z,73.7
2018-09-26T04:15:01.717Z,73.61
2018-09-26T04:15:27.865Z,73.41
2018-09-26T04:15:54.015Z,73.89
2018-09-26T04:16:20.196Z,74.08
2018-09-26T04:16:46.397Z,73.89
2018-09-26T04:17:12.523Z,74.18
2018-09-26T04:17:38.656Z,74.46
2018-09-26T04:18:04.812Z,74.18
2018-09-26T04:18:30.996Z,74.08
2018-09-26T04:18:57.125Z,74.27
2018-09-26T04:19:23.309Z,74.18
2018-09-26T04:19:49.457Z,74.18
2018-09-26T04:20:15.655Z,74.27
2018-09-26T04:20:41.726Z,73.7
2018-09-26T04:21:07.857Z,73.7
2018-09-26T04:21:33.990Z,74.27
2018-09-26T04:22:00.141Z,73.99
2018-09-26T04:22:26.276Z,73.89
2018-09-26T04:22:52.400Z,73.41
2018-09-26T04:23:18.529Z,73.7
2018-09-26T04:23:44.690Z,73.55
2018-09-26T04:24:10.879Z,73.41
2018-09-26T04:24:37.047Z,73.65
2018-09-26T04:25:03.203Z,73.61
2018-09-26T04:25:29.349Z,73.65
2018-09-26T04:25:55.485Z,73.45
2018-09-26T04:26:21.705Z,73.7
2018-09-26T04:26:47.932Z,73.03
2018-09-26T04:27:14.052Z,73.8
2018-09-26T04:27:40.183Z,73.41
2018-09-26T04:28:06.280Z,73.41
2018-09-26T04:28:32.446Z,73.8
2018-09-26T04:28:58.591Z,73.61
2018-09-26T04:29:24.809Z,73.7
2018-09-26T04:29:50.978Z,73.51
2018-09-26T04:30:17.137Z,73.41
2018-09-26T04:30:43.299Z,73.32
2018-09-26T04:31:09.421Z,73.61
2018-09-26T04:31:35.558Z,73.51
2018-09-26T04:32:01.698Z,73.99
2018-09-26T04:32:27.874Z,73.7
2018-09-26T04:32:54.102Z,73.51
2018-09-26T04:33:20.322Z,73.41
2018-09-26T04:33:46.576Z,73.51
2018-09-26T04:34:12.462Z,73.99
2018-09-26T04:34:38.594Z,73.99
2018-09-26T04:35:04.727Z,73.99
2018-09-26T04:35:30.857Z,74.18
2018-09-26T04:35:57.017Z,73.89
2018-09-26T04:36:23.169Z,74.37
2018-09-26T04:36:49.304Z,74.18
2018-09-26T04:37:15.430Z,73.89
2018-09-26T04:37:41.567Z,73.8
2018-09-26T04:38:07.706Z,73.89
2018-09-26T04:38:33.906Z,74.08
2018-09-26T04:39:00.019Z,73.89
2018-09-26T04:39:26.150Z,73.7
2018-09-26T04:39:52.278Z,74.18
2018-09-26T04:40:18.434Z,74.08
2018-09-26T04:40:44.584Z,73.99
2018-09-26T04:41:10.746Z,73.8
2018-09-26T04:41:36.909Z,73.89
2018-09-26T04:42:03.084Z,74.08
2018-09-26T04:42:29.243Z,74.08
2018-09-26T04:42:55.372Z,74.27
2018-09-26T04:43:21.567Z,73.89
2018-09-26T04:43:47.669Z,73.89
2018-09-26T04:44:13.795Z,73.99
2018-09-26T04:44:39.931Z,73.7
2018-09-26T04:45:06.089Z,74.08
2018-09-26T04:45:32.251Z,73.99
2018-09-26T04:45:58.380Z,74.08
2018-09-26T04:46:24.528Z,74.08
2018-09-26T04:46:50.656Z,73.61
2018-09-26T04:47:16.834Z,74.08
2018-09-26T04:47:42.968Z,74.56
2018-09-26T04:48:09.097Z,74.65
2018-09-26T04:48:35.249Z,74.27
2018-09-26T04:49:01.383Z,74.37
2018-09-26T04:49:27.515Z,74.37
2018-09-26T04:49:53.656Z,74.27
2018-09-26T04:50:19.812Z,74.46
2018-09-26T04:50:45.977Z,74.27
2018-09-26T04:51:12.107Z,74.37
2018-09-26T04:51:38.243Z,74.18
2018-09-26T04:52:04.367Z,74.08
2018-09-26T04:52:30.545Z,74.37
2018-09-26T04:52:56.680Z,74.46
2018-09-26T04:53:22.830Z,73.99
2018-09-26T04:53:48.957Z,74.08
2018-09-26T04:54:15.096Z,74.18
2018-09-26T04:54:41.219Z,74.18
2018-09-26T04:55:07.373Z,74.46
2018-09-26T04:55:33.504Z,74.56
2018-09-26T04:55:59.664Z,74.65
2018-09-26T04:56:25.788Z,74.56
2018-09-26T04:56:51.920Z,74.75
2018-09-26T04:57:18.048Z,74.37
2018-09-26T04:57:44.232Z,74.37
2018-09-26T04:58:10.397Z,74.08
2018-09-26T04:58:36.488Z,73.99
2018-09-26T04:59:02.640Z,74.84
2018-09-26T04:59:28.769Z,74.56
2018-09-26T04:59:54.904Z,74.65
2018-09-26T05:00:21.037Z,74.56
2018-09-26T05:00:47.206Z,74.46
2018-09-26T05:01:13.377Z,74.75
2018-09-26T05:01:39.511Z,74.84
2018-09-26T05:02:05.661Z,74.56
2018-09-26T05:02:31.799Z,74.65
2018-09-26T05:02:57.926Z,74.27
2018-09-26T05:03:24.055Z,74.65
2018-09-26T05:03:50.234Z,74.75
2018-09-26T05:04:16.414Z,74.65
2018-09-26T05:04:42.569Z,74.56
2018-09-26T05:05:08.700Z,74.56
2018-09-26T05:05:34.843Z,74.46
2018-09-26T05:06:00.973Z,74.37
2018-09-26T05:06:27.128Z,74.84
2018-09-26T05:06:53.260Z,74.18
2018-09-26T05:07:19.391Z,74.18
2018-09-26T05:07:45.545Z,74.46
2018-09-26T05:08:11.769Z,74.37
2018-09-26T05:08:37.899Z,74.18
2018-09-26T05:09:04.031Z,74.27
2018-09-26T05:09:30.165Z,74.08
2018-09-26T05:09:56.292Z,74.65
2018-09-26T05:10:22.437Z,74.56
2018-09-26T05:10:48.567Z,74.84
2018-09-26T05:11:14.702Z,74.08
2018-09-26T05:11:40.828Z,74.08
2018-09-26T05:12:06.950Z,74.08
2018-09-26T05:12:33.132Z,74.56
2018-09-26T05:12:59.261Z,74.08
2018-09-26T05:13:25.438Z,74.37
2018-09-26T05:13:51.578Z,74.46
2018-09-26T05:14:17.699Z,74.56
2018-09-26T05:14:43.848Z,74.18
2018-09-26T05:15:09.962Z,74.37
2018-09-26T05:15:36.111Z,74.27
2018-09-26T05:16:02.253Z,74.37
2018-09-26T05:16:28.378Z,74.27
2018-09-26T05:16:54.509Z,74.27
2018-09-26T05:17:20.663Z,73.99
2018-09-26T05:17:46.798Z,73.61
2018-09-26T05:18:12.924Z,73.89
2018-09-26T05:18:39.090Z,74.08
2018-09-26T05:19:05.232Z,73.51
2018-09-26T05:19:31.391Z,73.61
2018-09-26T05:19:57.516Z,73.41
2018-09-26T05:20:23.641Z,73.7
2018-09-26T05:20:49.798Z,73.41
2018-09-26T05:21:15.933Z,73.32
2018-09-26T05:21:42.059Z,73.32
2018-09-26T05:22:08.193Z,73.22
2018-09-26T05:22:34.327Z,73.61
2018-09-26T05:23:00.491Z,73.7
2018-09-26T05:23:26.601Z,72.94
2018-09-26T05:23:52.747Z,72.94
2018-09-26T05:24:18.879Z,73.03
2018-09-26T05:24:45.034Z,73.03
2018-09-26T05:25:11.161Z,73.03
2018-09-26T05:25:37.295Z,72.85
2018-09-26T05:26:03.428Z,73.51
2018-09-26T05:26:29.558Z,72.94
2018-09-26T05:26:55.693Z,73.03
2018-09-26T05:27:21.850Z,73.13
2018-09-26T05:27:48.001Z,72.56
2018-09-26T05:28:14.133Z,72.46
2018-09-26T05:28:40.265Z,72.65
2018-09-26T05:29:06.414Z,72.85
2018-09-26T05:29:32.547Z,73.03
2018-09-26T05:29:58.676Z,72.85
2018-09-26T05:30:24.853Z,73.03
2018-09-26T05:30:50.977Z,73.03
2018-09-26T05:31:17.136Z,73.03
2018-09-26T05:31:43.255Z,73.03
2018-09-26T05:32:09.391Z,72.75
2018-09-26T05:32:35.522Z,72.94
2018-09-26T05:33:01.658Z,72.85
2018-09-26T05:33:27.789Z,72.65
2018-09-26T05:33:53.948Z,71.98
2018-09-26T05:34:20.106Z,72.17
2018-09-26T05:34:46.233Z,72.56
2018-09-26T05:35:12.364Z,72.27
2018-09-26T05:35:38.491Z,72.56
2018-09-26T05:36:04.647Z,72.37
2018-09-26T05:36:30.778Z,72.17
2018-09-26T05:36:56.913Z,72.46
2018-09-26T05:37:23.068Z,72.56
2018-09-26T05:37:49.212Z,71.7